Tohshi — 3EJO5 — position and weather

sailwx.info

Track history (hours):
 
Tides and Currents Weather Stations Pressure Air Temp Water Temp Dewpoint Dewpoint Depression Visibility Wind Speed Wind Dir Waves Ship Positions

Tohshi

Last reported at 2017-Jul-29 09:39 UTC. Time now 2017-Aug-23 10:00 UTC.
Position N 01°18' E 103°19'.
Warning: this ship's position is 25 days out of date.

Length 333 m; beam 60 m.

Type: Tanker. MMSI: 372582000.

Date/timePositionNaut miles runAvg speedWind from/ knotsBaromVisibWave heightAir tempDewpointWater temp
2017-Jul-29 09:39N 01°18' E 103°19'212.1
2017-Jul-29 09:28N 01°16' E 103°21'511.7
2017-Jul-29 09:00N 01°13' E 103°26'611.6
2017-Jul-29 08:30N 01°12' E 103°31'611.5
2017-Jul-29 07:59N 01°11' E 103°37'2 5.1
2017-Jul-29 07:30N 01°11' E 103°40'3 5.2
2017-Jul-29 07:00N 01°09' E 103°42'510.7
2017-Jul-29 06:30N 01°10' E 103°47'5 9.6
2017-Jul-29 06:00N 01°12' E 103°51'611.4
2017-Jul-29 05:30N 01°14' E 103°57'713.5
2017-Jul-29 05:00N 01°16' E 104°03'  
2017-Jul-21 18:42N 32°23' E 128°16'4114.4
2017-Jul-21 15:53N 33°02' E 128°26'613.7
2017-Jul-21 15:28N 33°07' E 128°30'913.8
2017-Jul-21 14:48N 33°14' E 128°37'413.9
2017-Jul-21 14:30N 33°18' E 128°40'713.8
2017-Jul-21 14:00N 33°23' E 128°45'713.9
2017-Jul-21 13:29N 33°29' E 128°50'613.6
2017-Jul-21 13:00N 33°33' E 128°56'713.4
2017-Jul-21 12:30N 33°38' E 129°02'713.2
2017-Jul-21 12:01N 33°42' E 129°08'2813.2
2017-Jul-21 09:55N 34°00' E 129°33'  
Track history (hours):
 
Tides and Currents Weather Stations Pressure Air Temp Water Temp Dewpoint Dewpoint Depression Visibility Wind Speed Wind Dir Waves Ship Positions

Tohshi

Last reported at 2017-Jul-29 09:39 UTC. Time now 2017-Aug-23 10:00 UTC.
Position N 01°18' E 103°19'.
Warning: this ship's position is 25 days out of date.

Length 333 m; beam 60 m.

Type: Tanker. MMSI: 372582000.

Date/timePositionNaut miles runAvg speedWind from/ knotsBaromVisibWave heightAir tempDewpointWater temp
2017-Jul-29 09:39N 01°18' E 103°19'212.1
2017-Jul-29 09:28N 01°16' E 103°21'511.7
2017-Jul-29 09:00N 01°13' E 103°26'611.6
2017-Jul-29 08:30N 01°12' E 103°31'611.5
2017-Jul-29 07:59N 01°11' E 103°37'2 5.1
2017-Jul-29 07:30N 01°11' E 103°40'3 5.2
2017-Jul-29 07:00N 01°09' E 103°42'510.7
2017-Jul-29 06:30N 01°10' E 103°47'5 9.6
2017-Jul-29 06:00N 01°12' E 103°51'611.4
2017-Jul-29 05:30N 01°14' E 103°57'713.5
2017-Jul-29 05:00N 01°16' E 104°03'  
2017-Jul-21 18:42N 32°23' E 128°16'4114.4
2017-Jul-21 15:53N 33°02' E 128°26'613.7
2017-Jul-21 15:28N 33°07' E 128°30'913.8
2017-Jul-21 14:48N 33°14' E 128°37'413.9
2017-Jul-21 14:30N 33°18' E 128°40'713.8
2017-Jul-21 14:00N 33°23' E 128°45'713.9
2017-Jul-21 13:29N 33°29' E 128°50'613.6
2017-Jul-21 13:00N 33°33' E 128°56'713.4
2017-Jul-21 12:30N 33°38' E 129°02'713.2
2017-Jul-21 12:01N 33°42' E 129°08'2813.2
2017-Jul-21 09:55N 34°00' E 129°33'  

Dump ship's entire track history